sensor_id;sensor_type;location;lat;lon;timestamp;P1;durP1;ratioP1;P2;durP2;ratioP2
61785;SDS011;47692;53.714;11.372;2023-09-30T00:02:16;9.27;;;2.15;;
61785;SDS011;47692;53.714;11.372;2023-09-30T00:04:42;10.73;;;2.08;;
61785;SDS011;47692;53.714;11.372;2023-09-30T00:07:07;10.05;;;2.22;;
61785;SDS011;47692;53.714;11.372;2023-09-30T00:09:33;9.38;;;2.10;;
61785;SDS011;47692;53.714;11.372;2023-09-30T00:11:58;8.43;;;2.00;;
61785;SDS011;47692;53.714;11.372;2023-09-30T00:14:24;10.68;;;2.10;;
61785;SDS011;47692;53.714;11.372;2023-09-30T00:16:50;12.40;;;2.28;;
61785;SDS011;47692;53.714;11.372;2023-09-30T00:19:16;8.07;;;2.05;;
61785;SDS011;47692;53.714;11.372;2023-09-30T00:21:41;11.18;;;2.17;;
61785;SDS011;47692;53.714;11.372;2023-09-30T00:24:06;11.65;;;2.35;;
61785;SDS011;47692;53.714;11.372;2023-09-30T00:26:32;8.38;;;2.53;;
61785;SDS011;47692;53.714;11.372;2023-09-30T00:28:57;8.70;;;2.30;;
61785;SDS011;47692;53.714;11.372;2023-09-30T00:31:23;12.13;;;2.42;;
61785;SDS011;47692;53.714;11.372;2023-09-30T00:33:48;10.15;;;1.90;;
61785;SDS011;47692;53.714;11.372;2023-09-30T00:36:13;8.00;;;2.22;;
61785;SDS011;47692;53.714;11.372;2023-09-30T00:38:39;12.18;;;2.20;;
61785;SDS011;47692;53.714;11.372;2023-09-30T00:41:05;8.00;;;2.38;;
61785;SDS011;47692;53.714;11.372;2023-09-30T00:43:32;9.55;;;2.40;;
61785;SDS011;47692;53.714;11.372;2023-09-30T00:46:13;12.43;;;2.33;;
61785;SDS011;47692;53.714;11.372;2023-09-30T00:48:52;18.63;;;2.92;;
61785;SDS011;47692;53.714;11.372;2023-09-30T00:51:19;11.00;;;2.35;;
61785;SDS011;47692;53.714;11.372;2023-09-30T00:53:45;12.75;;;2.47;;
61785;SDS011;47692;53.714;11.372;2023-09-30T00:56:10;11.52;;;2.78;;
61785;SDS011;47692;53.714;11.372;2023-09-30T00:58:36;20.30;;;2.80;;
61785;SDS011;47692;53.714;11.372;2023-09-30T01:01:03;13.48;;;2.30;;
61785;SDS011;47692;53.714;11.372;2023-09-30T01:03:29;12.70;;;2.22;;
61785;SDS011;47692;53.714;11.372;2023-09-30T01:05:55;8.25;;;1.92;;
61785;SDS011;47692;53.714;11.372;2023-09-30T01:08:20;11.25;;;2.15;;
61785;SDS011;47692;53.714;11.372;2023-09-30T01:10:46;12.13;;;2.13;;
61785;SDS011;47692;53.714;11.372;2023-09-30T01:13:12;11.10;;;2.20;;
61785;SDS011;47692;53.714;11.372;2023-09-30T01:15:37;14.23;;;2.53;;
61785;SDS011;47692;53.714;11.372;2023-09-30T01:18:03;13.30;;;2.38;;
61785;SDS011;47692;53.714;11.372;2023-09-30T01:20:29;9.90;;;2.63;;
61785;SDS011;47692;53.714;11.372;2023-09-30T01:22:56;10.15;;;2.40;;
61785;SDS011;47692;53.714;11.372;2023-09-30T01:25:22;10.38;;;2.10;;
61785;SDS011;47692;53.714;11.372;2023-09-30T01:27:47;9.00;;;2.40;;
61785;SDS011;47692;53.714;11.372;2023-09-30T01:30:13;10.60;;;2.10;;
61785;SDS011;47692;53.714;11.372;2023-09-30T01:32:39;15.50;;;2.72;;
61785;SDS011;47692;53.714;11.372;2023-09-30T01:35:05;8.85;;;1.90;;
61785;SDS011;47692;53.714;11.372;2023-09-30T01:37:31;17.35;;;3.05;;
61785;SDS011;47692;53.714;11.372;2023-09-30T01:39:56;13.75;;;2.25;;
61785;SDS011;47692;53.714;11.372;2023-09-30T01:42:22;11.02;;;2.25;;
61785;SDS011;47692;53.714;11.372;2023-09-30T01:44:47;11.98;;;2.80;;
61785;SDS011;47692;53.714;11.372;2023-09-30T01:47:13;10.35;;;2.40;;
61785;SDS011;47692;53.714;11.372;2023-09-30T01:49:38;11.82;;;2.42;;
61785;SDS011;47692;53.714;11.372;2023-09-30T01:52:04;10.77;;;2.80;;
61785;SDS011;47692;53.714;11.372;2023-09-30T01:54:29;9.68;;;2.20;;
61785;SDS011;47692;53.714;11.372;2023-09-30T01:56:55;11.50;;;2.40;;
61785;SDS011;47692;53.714;11.372;2023-09-30T01:59:21;11.88;;;3.47;;
61785;SDS011;47692;53.714;11.372;2023-09-30T02:01:47;7.57;;;2.10;;
61785;SDS011;47692;53.714;11.372;2023-09-30T02:04:14;11.98;;;2.80;;
61785;SDS011;47692;53.714;11.372;2023-09-30T02:06:42;8.57;;;2.60;;
61785;SDS011;47692;53.714;11.372;2023-09-30T02:09:08;16.10;;;3.03;;
61785;SDS011;47692;53.714;11.372;2023-09-30T02:11:34;12.05;;;2.67;;
61785;SDS011;47692;53.714;11.372;2023-09-30T02:14:03;12.25;;;2.90;;
61785;SDS011;47692;53.714;11.372;2023-09-30T02:16:30;15.23;;;2.85;;
61785;SDS011;47692;53.714;11.372;2023-09-30T02:18:56;10.90;;;2.83;;
61785;SDS011;47692;53.714;11.372;2023-09-30T02:21:21;10.18;;;2.40;;
61785;SDS011;47692;53.714;11.372;2023-09-30T02:23:47;11.93;;;3.28;;
61785;SDS011;47692;53.714;11.372;2023-09-30T02:26:16;15.95;;;2.88;;
61785;SDS011;47692;53.714;11.372;2023-09-30T02:28:42;7.90;;;2.58;;
61785;SDS011;47692;53.714;11.372;2023-09-30T02:31:07;12.45;;;2.83;;
61785;SDS011;47692;53.714;11.372;2023-09-30T02:33:33;11.02;;;2.75;;
61785;SDS011;47692;53.714;11.372;2023-09-30T02:36:00;7.97;;;2.25;;
61785;SDS011;47692;53.714;11.372;2023-09-30T02:38:26;10.77;;;3.00;;
61785;SDS011;47692;53.714;11.372;2023-09-30T02:40:53;13.57;;;2.15;;
61785;SDS011;47692;53.714;11.372;2023-09-30T02:43:19;11.30;;;2.85;;
61785;SDS011;47692;53.714;11.372;2023-09-30T02:45:45;9.98;;;2.22;;
61785;SDS011;47692;53.714;11.372;2023-09-30T02:48:11;11.52;;;2.38;;
61785;SDS011;47692;53.714;11.372;2023-09-30T02:50:37;8.55;;;2.33;;
61785;SDS011;47692;53.714;11.372;2023-09-30T02:53:02;7.93;;;2.72;;
61785;SDS011;47692;53.714;11.372;2023-09-30T02:55:29;15.00;;;2.72;;
61785;SDS011;47692;53.714;11.372;2023-09-30T02:57:54;9.05;;;2.42;;
61785;SDS011;47692;53.714;11.372;2023-09-30T03:00:21;9.02;;;1.80;;
61785;SDS011;47692;53.714;11.372;2023-09-30T03:02:51;12.87;;;2.50;;
61785;SDS011;47692;53.714;11.372;2023-09-30T03:05:21;8.70;;;2.20;;
61785;SDS011;47692;53.714;11.372;2023-09-30T03:07:47;12.90;;;2.55;;
61785;SDS011;47692;53.714;11.372;2023-09-30T03:10:13;8.52;;;2.40;;
61785;SDS011;47692;53.714;11.372;2023-09-30T03:15:10;9.45;;;2.30;;
61785;SDS011;47692;53.714;11.372;2023-09-30T03:17:35;8.88;;;1.80;;
61785;SDS011;47692;53.714;11.372;2023-09-30T03:20:02;9.55;;;2.70;;
61785;SDS011;47692;53.714;11.372;2023-09-30T03:22:34;10.65;;;2.63;;
61785;SDS011;47692;53.714;11.372;2023-09-30T03:25:01;6.25;;;2.78;;
61785;SDS011;47692;53.714;11.372;2023-09-30T03:27:26;14.40;;;2.40;;
61785;SDS011;47692;53.714;11.372;2023-09-30T03:29:51;7.55;;;2.42;;
61785;SDS011;47692;53.714;11.372;2023-09-30T03:32:17;13.90;;;2.75;;
61785;SDS011;47692;53.714;11.372;2023-09-30T03:34:42;13.60;;;2.47;;
61785;SDS011;47692;53.714;11.372;2023-09-30T03:37:11;12.02;;;2.53;;
61785;SDS011;47692;53.714;11.372;2023-09-30T03:39:36;11.88;;;2.33;;
61785;SDS011;47692;53.714;11.372;2023-09-30T03:42:02;10.88;;;2.72;;
61785;SDS011;47692;53.714;11.372;2023-09-30T03:44:28;11.18;;;2.10;;
61785;SDS011;47692;53.714;11.372;2023-09-30T03:46:54;11.25;;;2.53;;
61785;SDS011;47692;53.714;11.372;2023-09-30T03:49:19;13.13;;;2.88;;
61785;SDS011;47692;53.714;11.372;2023-09-30T03:51:45;10.77;;;2.40;;
61785;SDS011;47692;53.714;11.372;2023-09-30T03:54:11;10.68;;;2.70;;
61785;SDS011;47692;53.714;11.372;2023-09-30T03:56:36;9.70;;;2.60;;
61785;SDS011;47692;53.714;11.372;2023-09-30T03:59:03;15.02;;;2.67;;
61785;SDS011;47692;53.714;11.372;2023-09-30T04:01:29;11.23;;;1.80;;
61785;SDS011;47692;53.714;11.372;2023-09-30T04:03:54;13.23;;;2.47;;
61785;SDS011;47692;53.714;11.372;2023-09-30T04:06:20;11.98;;;2.25;;
61785;SDS011;47692;53.714;11.372;2023-09-30T04:08:46;15.90;;;2.53;;
61785;SDS011;47692;53.714;11.372;2023-09-30T04:11:11;12.00;;;2.85;;
61785;SDS011;47692;53.714;11.372;2023-09-30T04:13:42;9.25;;;2.33;;
61785;SDS011;47692;53.714;11.372;2023-09-30T04:16:08;10.80;;;2.72;;
61785;SDS011;47692;53.714;11.372;2023-09-30T04:18:34;12.82;;;3.50;;
61785;SDS011;47692;53.714;11.372;2023-09-30T04:20:59;11.93;;;3.67;;
61785;SDS011;47692;53.714;11.372;2023-09-30T04:23:25;8.27;;;2.25;;
61785;SDS011;47692;53.714;11.372;2023-09-30T04:25:50;11.07;;;2.35;;
61785;SDS011;47692;53.714;11.372;2023-09-30T04:28:16;7.50;;;2.08;;
61785;SDS011;47692;53.714;11.372;2023-09-30T04:30:46;10.48;;;2.88;;
61785;SDS011;47692;53.714;11.372;2023-09-30T04:33:13;14.55;;;2.60;;
61785;SDS011;47692;53.714;11.372;2023-09-30T04:35:39;10.95;;;2.17;;
61785;SDS011;47692;53.714;11.372;2023-09-30T04:38:04;12.20;;;2.38;;
61785;SDS011;47692;53.714;11.372;2023-09-30T04:40:29;9.93;;;2.53;;
61785;SDS011;47692;53.714;11.372;2023-09-30T04:42:55;14.75;;;2.90;;
61785;SDS011;47692;53.714;11.372;2023-09-30T04:45:24;12.13;;;3.00;;
61785;SDS011;47692;53.714;11.372;2023-09-30T04:47:51;14.35;;;2.58;;
61785;SDS011;47692;53.714;11.372;2023-09-30T04:50:21;14.27;;;3.00;;
61785;SDS011;47692;53.714;11.372;2023-09-30T04:52:47;11.10;;;2.40;;
61785;SDS011;47692;53.714;11.372;2023-09-30T04:55:16;15.98;;;2.58;;
61785;SDS011;47692;53.714;11.372;2023-09-30T04:57:50;9.82;;;2.67;;
61785;SDS011;47692;53.714;11.372;2023-09-30T05:00:17;11.52;;;2.67;;
61785;SDS011;47692;53.714;11.372;2023-09-30T05:02:47;11.75;;;3.42;;
61785;SDS011;47692;53.714;11.372;2023-09-30T05:05:12;9.63;;;2.53;;
61785;SDS011;47692;53.714;11.372;2023-09-30T05:07:39;9.55;;;2.65;;
61785;SDS011;47692;53.714;11.372;2023-09-30T05:10:06;10.40;;;2.72;;
61785;SDS011;47692;53.714;11.372;2023-09-30T05:12:35;15.80;;;3.20;;
61785;SDS011;47692;53.714;11.372;2023-09-30T05:15:01;9.43;;;2.80;;
61785;SDS011;47692;53.714;11.372;2023-09-30T05:17:28;11.05;;;3.05;;
61785;SDS011;47692;53.714;11.372;2023-09-30T05:19:56;11.10;;;3.05;;
61785;SDS011;47692;53.714;11.372;2023-09-30T05:22:22;9.65;;;2.53;;
61785;SDS011;47692;53.714;11.372;2023-09-30T05:24:52;9.50;;;3.03;;
61785;SDS011;47692;53.714;11.372;2023-09-30T05:27:18;9.57;;;2.95;;
61785;SDS011;47692;53.714;11.372;2023-09-30T05:29:43;10.63;;;3.25;;
61785;SDS011;47692;53.714;11.372;2023-09-30T05:32:10;14.50;;;3.33;;
61785;SDS011;47692;53.714;11.372;2023-09-30T05:34:35;11.48;;;2.92;;
61785;SDS011;47692;53.714;11.372;2023-09-30T05:37:02;14.85;;;2.92;;
61785;SDS011;47692;53.714;11.372;2023-09-30T05:39:28;19.83;;;3.63;;
61785;SDS011;47692;53.714;11.372;2023-09-30T05:41:53;11.38;;;3.58;;
61785;SDS011;47692;53.714;11.372;2023-09-30T05:44:20;15.43;;;3.70;;
61785;SDS011;47692;53.714;11.372;2023-09-30T05:46:47;23.90;;;3.92;;
61785;SDS011;47692;53.714;11.372;2023-09-30T05:49:12;16.25;;;3.70;;
61785;SDS011;47692;53.714;11.372;2023-09-30T05:51:41;12.55;;;3.92;;
61785;SDS011;47692;53.714;11.372;2023-09-30T05:54:06;13.82;;;3.53;;
61785;SDS011;47692;53.714;11.372;2023-09-30T05:56:35;13.07;;;3.38;;
61785;SDS011;47692;53.714;11.372;2023-09-30T05:59:04;13.85;;;4.10;;
61785;SDS011;47692;53.714;11.372;2023-09-30T06:01:30;8.65;;;3.92;;
61785;SDS011;47692;53.714;11.372;2023-09-30T06:03:57;14.27;;;4.18;;
61785;SDS011;47692;53.714;11.372;2023-09-30T06:06:23;17.20;;;4.15;;
61785;SDS011;47692;53.714;11.372;2023-09-30T06:08:51;11.68;;;5.15;;
61785;SDS011;47692;53.714;11.372;2023-09-30T06:11:20;14.25;;;4.30;;
61785;SDS011;47692;53.714;11.372;2023-09-30T06:13:52;15.25;;;4.50;;
61785;SDS011;47692;53.714;11.372;2023-09-30T06:16:20;23.75;;;5.57;;
61785;SDS011;47692;53.714;11.372;2023-09-30T06:18:46;16.08;;;5.53;;
61785;SDS011;47692;53.714;11.372;2023-09-30T06:21:12;18.80;;;4.45;;
61785;SDS011;47692;53.714;11.372;2023-09-30T06:23:39;13.45;;;4.15;;
61785;SDS011;47692;53.714;11.372;2023-09-30T06:26:05;13.45;;;4.78;;
61785;SDS011;47692;53.714;11.372;2023-09-30T06:28:30;13.23;;;5.13;;
61785;SDS011;47692;53.714;11.372;2023-09-30T06:30:59;14.10;;;4.50;;
61785;SDS011;47692;53.714;11.372;2023-09-30T06:33:25;14.82;;;4.18;;
61785;SDS011;47692;53.714;11.372;2023-09-30T06:35:50;13.93;;;4.55;;
61785;SDS011;47692;53.714;11.372;2023-09-30T06:38:19;20.05;;;4.78;;
61785;SDS011;47692;53.714;11.372;2023-09-30T06:40:45;13.75;;;4.80;;
61785;SDS011;47692;53.714;11.372;2023-09-30T06:43:12;13.80;;;4.70;;
61785;SDS011;47692;53.714;11.372;2023-09-30T06:45:40;15.55;;;5.10;;
61785;SDS011;47692;53.714;11.372;2023-09-30T06:48:10;17.23;;;5.45;;
61785;SDS011;47692;53.714;11.372;2023-09-30T06:50:43;13.30;;;4.78;;
61785;SDS011;47692;53.714;11.372;2023-09-30T06:53:10;10.32;;;4.63;;
61785;SDS011;47692;53.714;11.372;2023-09-30T06:55:37;16.45;;;4.60;;
61785;SDS011;47692;53.714;11.372;2023-09-30T06:58:03;16.33;;;5.05;;
61785;SDS011;47692;53.714;11.372;2023-09-30T07:00:28;12.57;;;4.18;;
61785;SDS011;47692;53.714;11.372;2023-09-30T07:02:54;15.10;;;4.28;;
61785;SDS011;47692;53.714;11.372;2023-09-30T07:05:19;12.90;;;3.88;;
61785;SDS011;47692;53.714;11.372;2023-09-30T07:07:44;15.18;;;3.88;;
61785;SDS011;47692;53.714;11.372;2023-09-30T07:10:10;11.38;;;3.55;;
61785;SDS011;47692;53.714;11.372;2023-09-30T07:12:36;17.50;;;4.47;;
61785;SDS011;47692;53.714;11.372;2023-09-30T07:15:02;13.60;;;4.05;;
61785;SDS011;47692;53.714;11.372;2023-09-30T07:17:28;14.63;;;4.43;;
61785;SDS011;47692;53.714;11.372;2023-09-30T07:19:53;18.60;;;4.55;;
61785;SDS011;47692;53.714;11.372;2023-09-30T07:22:19;12.68;;;4.25;;
61785;SDS011;47692;53.714;11.372;2023-09-30T07:24:44;13.85;;;3.60;;
61785;SDS011;47692;53.714;11.372;2023-09-30T07:27:10;16.25;;;3.78;;
61785;SDS011;47692;53.714;11.372;2023-09-30T07:29:35;19.55;;;5.55;;
61785;SDS011;47692;53.714;11.372;2023-09-30T07:32:00;13.50;;;4.13;;
61785;SDS011;47692;53.714;11.372;2023-09-30T07:34:26;16.27;;;4.45;;
61785;SDS011;47692;53.714;11.372;2023-09-30T07:36:51;13.82;;;4.38;;
61785;SDS011;47692;53.714;11.372;2023-09-30T07:39:17;9.93;;;4.07;;
61785;SDS011;47692;53.714;11.372;2023-09-30T07:41:42;12.20;;;3.85;;
61785;SDS011;47692;53.714;11.372;2023-09-30T07:44:08;11.63;;;3.83;;
61785;SDS011;47692;53.714;11.372;2023-09-30T07:46:34;13.80;;;4.25;;
61785;SDS011;47692;53.714;11.372;2023-09-30T07:49:00;13.00;;;3.67;;
61785;SDS011;47692;53.714;11.372;2023-09-30T07:51:25;11.68;;;3.53;;
61785;SDS011;47692;53.714;11.372;2023-09-30T07:53:51;8.50;;;3.28;;
61785;SDS011;47692;53.714;11.372;2023-09-30T07:56:17;11.27;;;3.55;;
61785;SDS011;47692;53.714;11.372;2023-09-30T07:58:42;14.00;;;3.70;;
61785;SDS011;47692;53.714;11.372;2023-09-30T08:01:08;12.70;;;3.20;;
61785;SDS011;47692;53.714;11.372;2023-09-30T08:03:33;13.68;;;4.05;;
61785;SDS011;47692;53.714;11.372;2023-09-30T08:05:59;11.90;;;3.38;;
61785;SDS011;47692;53.714;11.372;2023-09-30T08:08:25;11.48;;;3.72;;
61785;SDS011;47692;53.714;11.372;2023-09-30T08:10:50;8.68;;;3.20;;
61785;SDS011;47692;53.714;11.372;2023-09-30T08:13:20;7.95;;;2.95;;
61785;SDS011;47692;53.714;11.372;2023-09-30T08:15:46;17.52;;;3.20;;
61785;SDS011;47692;53.714;11.372;2023-09-30T08:18:11;12.00;;;2.88;;
61785;SDS011;47692;53.714;11.372;2023-09-30T08:20:36;15.82;;;3.58;;
61785;SDS011;47692;53.714;11.372;2023-09-30T08:23:02;13.25;;;3.80;;
61785;SDS011;47692;53.714;11.372;2023-09-30T08:25:28;11.70;;;3.38;;
61785;SDS011;47692;53.714;11.372;2023-09-30T08:27:53;12.80;;;3.30;;
61785;SDS011;47692;53.714;11.372;2023-09-30T08:30:19;14.18;;;3.17;;
61785;SDS011;47692;53.714;11.372;2023-09-30T08:32:45;9.38;;;3.22;;
61785;SDS011;47692;53.714;11.372;2023-09-30T08:35:11;14.45;;;3.08;;
61785;SDS011;47692;53.714;11.372;2023-09-30T08:37:39;9.32;;;2.70;;
61785;SDS011;47692;53.714;11.372;2023-09-30T08:40:05;10.80;;;2.28;;
61785;SDS011;47692;53.714;11.372;2023-09-30T08:42:31;12.85;;;2.75;;
61785;SDS011;47692;53.714;11.372;2023-09-30T08:44:58;12.50;;;2.90;;
61785;SDS011;47692;53.714;11.372;2023-09-30T08:47:27;10.98;;;2.60;;
61785;SDS011;47692;53.714;11.372;2023-09-30T08:49:54;9.60;;;3.00;;
61785;SDS011;47692;53.714;11.372;2023-09-30T08:52:22;10.48;;;2.50;;
61785;SDS011;47692;53.714;11.372;2023-09-30T08:54:49;14.20;;;2.50;;
61785;SDS011;47692;53.714;11.372;2023-09-30T08:57:14;11.40;;;2.38;;
61785;SDS011;47692;53.714;11.372;2023-09-30T08:59:42;9.95;;;2.30;;
61785;SDS011;47692;53.714;11.372;2023-09-30T09:02:09;13.30;;;2.20;;
61785;SDS011;47692;53.714;11.372;2023-09-30T09:04:38;14.20;;;2.83;;
61785;SDS011;47692;53.714;11.372;2023-09-30T09:07:04;15.93;;;2.28;;
61785;SDS011;47692;53.714;11.372;2023-09-30T09:09:29;8.35;;;2.33;;
61785;SDS011;47692;53.714;11.372;2023-09-30T09:11:54;9.82;;;2.25;;
61785;SDS011;47692;53.714;11.372;2023-09-30T09:14:36;12.43;;;3.08;;
61785;SDS011;47692;53.714;11.372;2023-09-30T09:17:03;12.25;;;2.72;;
61785;SDS011;47692;53.714;11.372;2023-09-30T09:19:30;7.47;;;2.20;;
61785;SDS011;47692;53.714;11.372;2023-09-30T09:21:56;12.48;;;2.33;;
61785;SDS011;47692;53.714;11.372;2023-09-30T09:24:36;5.55;;;2.17;;
61785;SDS011;47692;53.714;11.372;2023-09-30T09:29:36;9.93;;;2.33;;
61785;SDS011;47692;53.714;11.372;2023-09-30T09:32:06;10.98;;;3.00;;
61785;SDS011;47692;53.714;11.372;2023-09-30T09:34:33;8.88;;;2.00;;
61785;SDS011;47692;53.714;11.372;2023-09-30T09:36:58;8.60;;;1.70;;
61785;SDS011;47692;53.714;11.372;2023-09-30T09:39:30;9.98;;;2.20;;
61785;SDS011;47692;53.714;11.372;2023-09-30T09:41:59;11.90;;;2.30;;
61785;SDS011;47692;53.714;11.372;2023-09-30T09:44:26;13.57;;;2.35;;
61785;SDS011;47692;53.714;11.372;2023-09-30T09:46:52;6.25;;;1.83;;
61785;SDS011;47692;53.714;11.372;2023-09-30T09:49:17;10.32;;;2.25;;
61785;SDS011;47692;53.714;11.372;2023-09-30T09:51:44;9.02;;;2.22;;
61785;SDS011;47692;53.714;11.372;2023-09-30T09:54:11;11.40;;;2.80;;
61785;SDS011;47692;53.714;11.372;2023-09-30T09:56:38;9.75;;;1.70;;
61785;SDS011;47692;53.714;11.372;2023-09-30T09:59:04;11.73;;;2.15;;
61785;SDS011;47692;53.714;11.372;2023-09-30T10:01:32;9.32;;;1.73;;
61785;SDS011;47692;53.714;11.372;2023-09-30T10:03:59;11.13;;;2.03;;
61785;SDS011;47692;53.714;11.372;2023-09-30T10:06:25;6.03;;;1.83;;
61785;SDS011;47692;53.714;11.372;2023-09-30T10:08:51;8.25;;;1.75;;
61785;SDS011;47692;53.714;11.372;2023-09-30T10:11:18;8.48;;;1.88;;
61785;SDS011;47692;53.714;11.372;2023-09-30T10:19:10;11.18;;;1.60;;
61785;SDS011;47692;53.714;11.372;2023-09-30T10:24:47;8.00;;;1.23;;
61785;SDS011;47692;53.714;11.372;2023-09-30T10:35:19;7.07;;;1.50;;
61785;SDS011;47692;53.714;11.372;2023-09-30T10:37:49;9.27;;;1.52;;
61785;SDS011;47692;53.714;11.372;2023-09-30T10:40:40;8.60;;;1.75;;
61785;SDS011;47692;53.714;11.372;2023-09-30T10:43:06;13.32;;;2.10;;
61785;SDS011;47692;53.714;11.372;2023-09-30T10:45:54;8.88;;;1.30;;
61785;SDS011;47692;53.714;11.372;2023-09-30T10:48:42;8.88;;;1.45;;
61785;SDS011;47692;53.714;11.372;2023-09-30T10:51:19;8.05;;;2.00;;
61785;SDS011;47692;53.714;11.372;2023-09-30T10:53:51;9.85;;;1.50;;
61785;SDS011;47692;53.714;11.372;2023-09-30T10:56:21;6.07;;;1.40;;
61785;SDS011;47692;53.714;11.372;2023-09-30T10:58:49;6.72;;;1.70;;
61785;SDS011;47692;53.714;11.372;2023-09-30T11:01:20;5.95;;;1.45;;
61785;SDS011;47692;53.714;11.372;2023-09-30T11:03:47;6.68;;;1.50;;
61785;SDS011;47692;53.714;11.372;2023-09-30T11:06:16;9.90;;;1.40;;
61785;SDS011;47692;53.714;11.372;2023-09-30T11:09:07;5.40;;;1.35;;
61785;SDS011;47692;53.714;11.372;2023-09-30T11:14:26;6.95;;;1.83;;
61785;SDS011;47692;53.714;11.372;2023-09-30T11:17:01;8.15;;;1.38;;
61785;SDS011;47692;53.714;11.372;2023-09-30T11:19:47;7.35;;;1.30;;
61785;SDS011;47692;53.714;11.372;2023-09-30T11:22:13;8.55;;;1.25;;
61785;SDS011;47692;53.714;11.372;2023-09-30T11:24:41;3.38;;;1.17;;
61785;SDS011;47692;53.714;11.372;2023-09-30T11:27:06;6.35;;;1.40;;
61785;SDS011;47692;53.714;11.372;2023-09-30T11:29:32;7.22;;;1.60;;
61785;SDS011;47692;53.714;11.372;2023-09-30T11:31:57;5.10;;;1.35;;
61785;SDS011;47692;53.714;11.372;2023-09-30T11:34:36;4.90;;;1.30;;
61785;SDS011;47692;53.714;11.372;2023-09-30T11:37:02;7.95;;;1.35;;
61785;SDS011;47692;53.714;11.372;2023-09-30T11:39:28;5.63;;;1.45;;
61785;SDS011;47692;53.714;11.372;2023-09-30T11:42:00;8.50;;;1.75;;
61785;SDS011;47692;53.714;11.372;2023-09-30T11:44:26;8.07;;;1.95;;
61785;SDS011;47692;53.714;11.372;2023-09-30T11:51:49;7.05;;;1.42;;
61785;SDS011;47692;53.714;11.372;2023-09-30T11:54:15;6.25;;;1.10;;
61785;SDS011;47692;53.714;11.372;2023-09-30T11:56:41;7.18;;;1.20;;
61785;SDS011;47692;53.714;11.372;2023-09-30T11:59:07;6.18;;;1.13;;
61785;SDS011;47692;53.714;11.372;2023-09-30T12:01:35;7.75;;;1.50;;
61785;SDS011;47692;53.714;11.372;2023-09-30T12:04:04;5.57;;;1.50;;
61785;SDS011;47692;53.714;11.372;2023-09-30T12:06:29;7.97;;;1.38;;
61785;SDS011;47692;53.714;11.372;2023-09-30T12:08:55;6.72;;;1.30;;
61785;SDS011;47692;53.714;11.372;2023-09-30T12:11:20;9.18;;;1.77;;
61785;SDS011;47692;53.714;11.372;2023-09-30T12:13:49;5.53;;;1.33;;
61785;SDS011;47692;53.714;11.372;2023-09-30T12:16:15;9.23;;;1.48;;
61785;SDS011;47692;53.714;11.372;2023-09-30T12:18:41;9.38;;;1.13;;
61785;SDS011;47692;53.714;11.372;2023-09-30T12:21:08;4.30;;;1.20;;
61785;SDS011;47692;53.714;11.372;2023-09-30T12:23:35;3.78;;;1.10;;
61785;SDS011;47692;53.714;11.372;2023-09-30T12:26:01;7.72;;;1.27;;
61785;SDS011;47692;53.714;11.372;2023-09-30T12:28:30;6.15;;;1.52;;
61785;SDS011;47692;53.714;11.372;2023-09-30T12:30:57;5.30;;;0.80;;
61785;SDS011;47692;53.714;11.372;2023-09-30T12:33:22;4.85;;;1.30;;
61785;SDS011;47692;53.714;11.372;2023-09-30T12:35:48;5.05;;;1.13;;
61785;SDS011;47692;53.714;11.372;2023-09-30T12:38:14;6.07;;;1.10;;
61785;SDS011;47692;53.714;11.372;2023-09-30T12:40:41;5.90;;;1.20;;
61785;SDS011;47692;53.714;11.372;2023-09-30T12:43:06;9.73;;;1.35;;
61785;SDS011;47692;53.714;11.372;2023-09-30T12:45:32;13.23;;;1.65;;
61785;SDS011;47692;53.714;11.372;2023-09-30T12:47:57;7.03;;;1.15;;
61785;SDS011;47692;53.714;11.372;2023-09-30T12:50:23;4.93;;;1.10;;
61785;SDS011;47692;53.714;11.372;2023-09-30T12:52:48;8.52;;;1.40;;
61785;SDS011;47692;53.714;11.372;2023-09-30T12:55:14;7.85;;;1.88;;
61785;SDS011;47692;53.714;11.372;2023-09-30T12:57:39;6.07;;;1.60;;
61785;SDS011;47692;53.714;11.372;2023-09-30T13:00:05;7.80;;;1.80;;
61785;SDS011;47692;53.714;11.372;2023-09-30T13:02:34;4.40;;;1.20;;
61785;SDS011;47692;53.714;11.372;2023-09-30T13:04:59;8.63;;;1.73;;
61785;SDS011;47692;53.714;11.372;2023-09-30T13:07:25;7.93;;;1.42;;
61785;SDS011;47692;53.714;11.372;2023-09-30T13:09:50;8.70;;;1.90;;
61785;SDS011;47692;53.714;11.372;2023-09-30T13:12:16;4.63;;;1.25;;
61785;SDS011;47692;53.714;11.372;2023-09-30T13:14:42;7.35;;;1.20;;
61785;SDS011;47692;53.714;11.372;2023-09-30T13:17:07;8.77;;;1.17;;
61785;SDS011;47692;53.714;11.372;2023-09-30T13:19:33;6.07;;;1.40;;
61785;SDS011;47692;53.714;11.372;2023-09-30T13:21:58;4.97;;;1.30;;
61785;SDS011;47692;53.714;11.372;2023-09-30T13:24:23;4.80;;;1.17;;
61785;SDS011;47692;53.714;11.372;2023-09-30T13:26:49;6.68;;;1.33;;
61785;SDS011;47692;53.714;11.372;2023-09-30T13:29:17;5.20;;;1.77;;
61785;SDS011;47692;53.714;11.372;2023-09-30T13:31:43;5.22;;;1.27;;
61785;SDS011;47692;53.714;11.372;2023-09-30T13:34:10;10.10;;;1.23;;
61785;SDS011;47692;53.714;11.372;2023-09-30T13:36:37;5.50;;;1.83;;
61785;SDS011;47692;53.714;11.372;2023-09-30T13:39:02;7.20;;;1.30;;
61785;SDS011;47692;53.714;11.372;2023-09-30T13:41:30;9.15;;;1.30;;
61785;SDS011;47692;53.714;11.372;2023-09-30T13:43:59;6.95;;;1.35;;
61785;SDS011;47692;53.714;11.372;2023-09-30T13:46:25;4.88;;;1.17;;
61785;SDS011;47692;53.714;11.372;2023-09-30T13:48:53;3.85;;;1.02;;
61785;SDS011;47692;53.714;11.372;2023-09-30T13:51:18;4.00;;;1.00;;
61785;SDS011;47692;53.714;11.372;2023-09-30T13:53:44;5.40;;;1.10;;
61785;SDS011;47692;53.714;11.372;2023-09-30T13:56:09;6.20;;;0.88;;
61785;SDS011;47692;53.714;11.372;2023-09-30T13:58:35;6.68;;;1.10;;
61785;SDS011;47692;53.714;11.372;2023-09-30T14:01:01;5.07;;;1.15;;
61785;SDS011;47692;53.714;11.372;2023-09-30T14:03:27;6.18;;;1.13;;
61785;SDS011;47692;53.714;11.372;2023-09-30T14:05:55;5.30;;;1.15;;
61785;SDS011;47692;53.714;11.372;2023-09-30T14:08:24;5.10;;;1.08;;
61785;SDS011;47692;53.714;11.372;2023-09-30T14:10:50;5.32;;;1.55;;
61785;SDS011;47692;53.714;11.372;2023-09-30T14:13:16;5.20;;;1.00;;
61785;SDS011;47692;53.714;11.372;2023-09-30T14:15:42;7.55;;;1.13;;
61785;SDS011;47692;53.714;11.372;2023-09-30T14:18:07;10.02;;;1.20;;
61785;SDS011;47692;53.714;11.372;2023-09-30T14:20:33;4.28;;;0.70;;
61785;SDS011;47692;53.714;11.372;2023-09-30T14:23:01;3.83;;;1.00;;
61785;SDS011;47692;53.714;11.372;2023-09-30T14:25:27;6.05;;;1.10;;
61785;SDS011;47692;53.714;11.372;2023-09-30T14:27:52;8.10;;;1.55;;
61785;SDS011;47692;53.714;11.372;2023-09-30T14:30:18;4.70;;;0.98;;
61785;SDS011;47692;53.714;11.372;2023-09-30T14:32:45;5.25;;;1.30;;
61785;SDS011;47692;53.714;11.372;2023-09-30T14:35:10;4.35;;;1.13;;
61785;SDS011;47692;53.714;11.372;2023-09-30T14:37:36;7.20;;;1.25;;
61785;SDS011;47692;53.714;11.372;2023-09-30T14:40:01;4.78;;;1.30;;
61785;SDS011;47692;53.714;11.372;2023-09-30T14:42:31;7.05;;;1.10;;
61785;SDS011;47692;53.714;11.372;2023-09-30T14:44:56;6.13;;;1.25;;
61785;SDS011;47692;53.714;11.372;2023-09-30T14:47:22;6.15;;;1.13;;
61785;SDS011;47692;53.714;11.372;2023-09-30T14:49:48;4.90;;;1.08;;
61785;SDS011;47692;53.714;11.372;2023-09-30T14:52:14;6.05;;;1.52;;
61785;SDS011;47692;53.714;11.372;2023-09-30T14:54:40;4.75;;;1.13;;
61785;SDS011;47692;53.714;11.372;2023-09-30T14:57:05;10.38;;;1.63;;